METAR Data
IDs: Format: Raw Decoded Include TAF

Data at: 0835 UTC 18 Sep 2021

LKPD 180830Z 30009KT 9999 FEW020 BKN050 14/08 Q1014 NOSIG RMK BLU BLU